PLJ weather

Placencia Airport
Placencia, Stann Creek District, Belize

Public forecast

Using degrees Celsius for public forecast. Weather courtesy of forecast.io.

METAR (pilot weather report)

Closest report is Puerto Barrios Airport, 50.1 nm (92.7 km) SSW. Retrieved 2019/02/19 14:00 UTC (1 hour ago):

MGPB 191400Z 00000KT 8000 SKC 26/24 Q1014 A2994 BR

TAF (pilot weather forecast)

Closest forecast is Puerto Barrios Airport, 50.1 nm (92.7 km) SSW. Retrieved 2019/02/19 12:03 UTC (3 hours ago):

TAF TAF MGPB 191100Z 1912/2012 00000KT 8000 NSC TX31/1920Z TN21/1912Z TEMPO 1912/1916 CAVOK BECMG 1916/1918 05008KT TEMPO 1920/2000 FEW020 BECMG 2000/2002 00000KT